sensor_id;sensor_type;location;lat;lon;timestamp;temperature;humidity
11822;DHT22;5968;50.362;8.982;2022-08-02T00:00:40;20.00;99.90
11822;DHT22;5968;50.362;8.982;2022-08-02T00:03:08;20.00;99.90
11822;DHT22;5968;50.362;8.982;2022-08-02T00:05:36;20.00;99.90
11822;DHT22;5968;50.362;8.982;2022-08-02T00:08:07;20.00;99.90
11822;DHT22;5968;50.362;8.982;2022-08-02T00:10:35;19.90;99.90
11822;DHT22;5968;50.362;8.982;2022-08-02T00:13:03;19.90;99.90
11822;DHT22;5968;50.362;8.982;2022-08-02T00:15:31;19.80;99.90
11822;DHT22;5968;50.362;8.982;2022-08-02T00:18:00;20.10;99.90
11822;DHT22;5968;50.362;8.982;2022-08-02T00:22:57;19.70;99.90
11822;DHT22;5968;50.362;8.982;2022-08-02T00:25:25;19.70;99.90
11822;DHT22;5968;50.362;8.982;2022-08-02T00:27:53;19.60;99.90
11822;DHT22;5968;50.362;8.982;2022-08-02T00:30:21;19.60;99.90
11822;DHT22;5968;50.362;8.982;2022-08-02T00:32:48;19.60;99.90
11822;DHT22;5968;50.362;8.982;2022-08-02T00:35:18;19.40;99.90
11822;DHT22;5968;50.362;8.982;2022-08-02T00:37:46;19.40;99.90
11822;DHT22;5968;50.362;8.982;2022-08-02T00:40:14;19.40;99.90
11822;DHT22;5968;50.362;8.982;2022-08-02T00:42:42;19.30;99.90
11822;DHT22;5968;50.362;8.982;2022-08-02T00:45:10;19.30;99.90
11822;DHT22;5968;50.362;8.982;2022-08-02T00:47:38;19.30;99.90
11822;DHT22;5968;50.362;8.982;2022-08-02T00:50:06;20.00;99.90
11822;DHT22;5968;50.362;8.982;2022-08-02T00:52:35;19.10;99.90
11822;DHT22;5968;50.362;8.982;2022-08-02T00:55:04;19.10;99.90
11822;DHT22;5968;50.362;8.982;2022-08-02T00:57:32;19.10;99.90
11822;DHT22;5968;50.362;8.982;2022-08-02T00:59:59;19.10;99.90
11822;DHT22;5968;50.362;8.982;2022-08-02T01:02:27;19.10;99.90
11822;DHT22;5968;50.362;8.982;2022-08-02T01:04:55;19.10;99.90
11822;DHT22;5968;50.362;8.982;2022-08-02T01:07:23;19.00;99.90
11822;DHT22;5968;50.362;8.982;2022-08-02T01:09:52;19.00;99.90
11822;DHT22;5968;50.362;8.982;2022-08-02T01:12:20;18.90;99.90
11822;DHT22;5968;50.362;8.982;2022-08-02T01:14:49;19.00;99.90
11822;DHT22;5968;50.362;8.982;2022-08-02T01:17:21;18.90;99.90
11822;DHT22;5968;50.362;8.982;2022-08-02T01:19:55;18.90;99.90
11822;DHT22;5968;50.362;8.982;2022-08-02T01:22:53;18.90;99.90
11822;DHT22;5968;50.362;8.982;2022-08-02T01:25:52;18.90;99.90
11822;DHT22;5968;50.362;8.982;2022-08-02T01:28:33;18.70;99.90
11822;DHT22;5968;50.362;8.982;2022-08-02T01:31:12;18.90;99.90
11822;DHT22;5968;50.362;8.982;2022-08-02T01:33:43;19.70;99.90
11822;DHT22;5968;50.362;8.982;2022-08-02T01:36:13;15.90;99.90
11822;DHT22;5968;50.362;8.982;2022-08-02T01:38:47;18.80;99.90
11822;DHT22;5968;50.362;8.982;2022-08-02T01:41:20;18.80;99.90
11822;DHT22;5968;50.362;8.982;2022-08-02T01:43:53;18.70;99.90
11822;DHT22;5968;50.362;8.982;2022-08-02T01:46:25;18.70;99.90
11822;DHT22;5968;50.362;8.982;2022-08-02T01:48:55;18.60;99.90
11822;DHT22;5968;50.362;8.982;2022-08-02T01:51:26;19.50;99.90
11822;DHT22;5968;50.362;8.982;2022-08-02T01:54:11;18.40;99.90
11822;DHT22;5968;50.362;8.982;2022-08-02T01:56:41;18.50;99.90
11822;DHT22;5968;50.362;8.982;2022-08-02T01:59:17;18.40;99.90
11822;DHT22;5968;50.362;8.982;2022-08-02T02:01:47;18.40;99.90
11822;DHT22;5968;50.362;8.982;2022-08-02T02:04:16;18.40;99.90
11822;DHT22;5968;50.362;8.982;2022-08-02T02:06:45;18.20;99.90
11822;DHT22;5968;50.362;8.982;2022-08-02T02:09:15;18.20;99.90
11822;DHT22;5968;50.362;8.982;2022-08-02T02:11:45;18.10;99.90
11822;DHT22;5968;50.362;8.982;2022-08-02T02:14:36;18.10;99.90
11822;DHT22;5968;50.362;8.982;2022-08-02T02:17:07;17.90;99.90
11822;DHT22;5968;50.362;8.982;2022-08-02T02:19:57;18.00;99.90
11822;DHT22;5968;50.362;8.982;2022-08-02T02:22:26;18.00;99.90
11822;DHT22;5968;50.362;8.982;2022-08-02T02:24:54;18.00;99.90
11822;DHT22;5968;50.362;8.982;2022-08-02T02:27:24;17.90;99.90
11822;DHT22;5968;50.362;8.982;2022-08-02T02:29:56;18.10;99.90
11822;DHT22;5968;50.362;8.982;2022-08-02T02:32:26;17.70;99.90
11822;DHT22;5968;50.362;8.982;2022-08-02T02:34:55;18.70;99.90
11822;DHT22;5968;50.362;8.982;2022-08-02T02:37:23;17.70;99.90
11822;DHT22;5968;50.362;8.982;2022-08-02T02:39:54;17.80;99.90
11822;DHT22;5968;50.362;8.982;2022-08-02T02:42:27;17.80;99.90
11822;DHT22;5968;50.362;8.982;2022-08-02T02:44:58;17.80;99.90
11822;DHT22;5968;50.362;8.982;2022-08-02T02:47:27;17.70;99.90
11822;DHT22;5968;50.362;8.982;2022-08-02T02:50:08;17.60;99.90
11822;DHT22;5968;50.362;8.982;2022-08-02T02:52:39;17.60;99.90
11822;DHT22;5968;50.362;8.982;2022-08-02T02:55:09;17.80;99.90
11822;DHT22;5968;50.362;8.982;2022-08-02T03:00:09;17.60;99.90
11822;DHT22;5968;50.362;8.982;2022-08-02T03:02:38;17.70;99.90
11822;DHT22;5968;50.362;8.982;2022-08-02T03:05:09;17.50;99.90
11822;DHT22;5968;50.362;8.982;2022-08-02T03:07:37;17.50;99.90
11822;DHT22;5968;50.362;8.982;2022-08-02T03:10:06;17.50;99.90
11822;DHT22;5968;50.362;8.982;2022-08-02T03:12:35;17.40;99.90
11822;DHT22;5968;50.362;8.982;2022-08-02T03:15:08;17.50;99.90
11822;DHT22;5968;50.362;8.982;2022-08-02T03:17:39;17.40;99.90
11822;DHT22;5968;50.362;8.982;2022-08-02T03:20:11;17.40;99.90
11822;DHT22;5968;50.362;8.982;2022-08-02T03:22:44;17.30;99.90
11822;DHT22;5968;50.362;8.982;2022-08-02T03:25:14;17.40;99.90
11822;DHT22;5968;50.362;8.982;2022-08-02T03:27:42;17.10;99.90
11822;DHT22;5968;50.362;8.982;2022-08-02T03:30:12;17.20;99.90
11822;DHT22;5968;50.362;8.982;2022-08-02T03:32:43;17.40;99.90
11822;DHT22;5968;50.362;8.982;2022-08-02T03:35:13;17.30;99.90
11822;DHT22;5968;50.362;8.982;2022-08-02T03:37:51;17.30;99.90
11822;DHT22;5968;50.362;8.982;2022-08-02T03:40:19;17.30;99.90
11822;DHT22;5968;50.362;8.982;2022-08-02T03:42:48;17.30;99.90
11822;DHT22;5968;50.362;8.982;2022-08-02T03:45:19;17.20;99.90
11822;DHT22;5968;50.362;8.982;2022-08-02T03:47:50;17.20;99.90
11822;DHT22;5968;50.362;8.982;2022-08-02T03:50:19;17.10;99.90
11822;DHT22;5968;50.362;8.982;2022-08-02T03:52:48;17.10;99.90
11822;DHT22;5968;50.362;8.982;2022-08-02T03:55:16;17.00;99.90
11822;DHT22;5968;50.362;8.982;2022-08-02T03:57:44;16.90;99.90
11822;DHT22;5968;50.362;8.982;2022-08-02T04:00:19;16.90;99.90
11822;DHT22;5968;50.362;8.982;2022-08-02T04:02:47;17.00;99.90
11822;DHT22;5968;50.362;8.982;2022-08-02T04:05:16;17.10;99.90
11822;DHT22;5968;50.362;8.982;2022-08-02T04:07:44;16.90;99.90
11822;DHT22;5968;50.362;8.982;2022-08-02T04:10:33;17.10;99.90
11822;DHT22;5968;50.362;8.982;2022-08-02T04:13:25;16.80;99.90
11822;DHT22;5968;50.362;8.982;2022-08-02T04:16:05;17.00;99.90
11822;DHT22;5968;50.362;8.982;2022-08-02T04:18:39;17.00;99.90
11822;DHT22;5968;50.362;8.982;2022-08-02T04:21:14;16.90;99.90
11822;DHT22;5968;50.362;8.982;2022-08-02T04:23:45;16.90;99.90
11822;DHT22;5968;50.362;8.982;2022-08-02T04:26:15;16.70;99.90
11822;DHT22;5968;50.362;8.982;2022-08-02T04:28:44;16.70;99.90
11822;DHT22;5968;50.362;8.982;2022-08-02T04:31:15;16.80;99.90
11822;DHT22;5968;50.362;8.982;2022-08-02T04:33:44;16.70;99.90
11822;DHT22;5968;50.362;8.982;2022-08-02T04:36:13;16.80;99.90
11822;DHT22;5968;50.362;8.982;2022-08-02T04:38:57;16.80;99.90
11822;DHT22;5968;50.362;8.982;2022-08-02T04:41:38;16.80;99.90
11822;DHT22;5968;50.362;8.982;2022-08-02T04:44:10;16.80;99.90
11822;DHT22;5968;50.362;8.982;2022-08-02T04:46:40;17.00;99.90
11822;DHT22;5968;50.362;8.982;2022-08-02T04:49:09;16.80;99.90
11822;DHT22;5968;50.362;8.982;2022-08-02T04:51:38;16.90;99.90
11822;DHT22;5968;50.362;8.982;2022-08-02T04:54:08;17.00;99.90
11822;DHT22;5968;50.362;8.982;2022-08-02T04:56:36;17.10;99.90
11822;DHT22;5968;50.362;8.982;2022-08-02T04:59:04;17.00;99.90
11822;DHT22;5968;50.362;8.982;2022-08-02T05:04:03;17.10;99.90
11822;DHT22;5968;50.362;8.982;2022-08-02T05:06:31;17.30;99.90
11822;DHT22;5968;50.362;8.982;2022-08-02T05:08:59;17.50;99.90
11822;DHT22;5968;50.362;8.982;2022-08-02T05:11:26;17.30;99.90
11822;DHT22;5968;50.362;8.982;2022-08-02T05:14:04;17.90;99.90
11822;DHT22;5968;50.362;8.982;2022-08-02T05:16:32;17.50;99.90
11822;DHT22;5968;50.362;8.982;2022-08-02T05:19:00;17.80;99.90
11822;DHT22;5968;50.362;8.982;2022-08-02T05:21:30;17.50;99.90
11822;DHT22;5968;50.362;8.982;2022-08-02T05:23:58;17.40;99.90
11822;DHT22;5968;50.362;8.982;2022-08-02T05:26:25;17.50;99.90
11822;DHT22;5968;50.362;8.982;2022-08-02T05:28:53;17.50;99.90
11822;DHT22;5968;50.362;8.982;2022-08-02T05:31:21;17.50;99.90
11822;DHT22;5968;50.362;8.982;2022-08-02T05:33:49;18.10;99.90
11822;DHT22;5968;50.362;8.982;2022-08-02T05:36:17;17.50;99.90
11822;DHT22;5968;50.362;8.982;2022-08-02T05:38:48;17.50;99.90
11822;DHT22;5968;50.362;8.982;2022-08-02T05:41:17;17.50;99.90
11822;DHT22;5968;50.362;8.982;2022-08-02T05:43:46;18.10;99.90
11822;DHT22;5968;50.362;8.982;2022-08-02T05:46:14;17.50;99.90
11822;DHT22;5968;50.362;8.982;2022-08-02T05:48:42;17.60;99.90
11822;DHT22;5968;50.362;8.982;2022-08-02T05:51:12;17.40;99.90
11822;DHT22;5968;50.362;8.982;2022-08-02T05:53:51;17.60;99.90
11822;DHT22;5968;50.362;8.982;2022-08-02T05:56:31;17.60;99.90
11822;DHT22;5968;50.362;8.982;2022-08-02T05:59:02;18.30;99.90
11822;DHT22;5968;50.362;8.982;2022-08-02T06:01:32;17.70;99.90
11822;DHT22;5968;50.362;8.982;2022-08-02T06:04:05;17.60;99.90
11822;DHT22;5968;50.362;8.982;2022-08-02T06:06:36;17.60;99.90
11822;DHT22;5968;50.362;8.982;2022-08-02T06:09:09;17.70;99.90
11822;DHT22;5968;50.362;8.982;2022-08-02T06:11:43;17.50;99.90
11822;DHT22;5968;50.362;8.982;2022-08-02T06:14:36;17.70;99.90
11822;DHT22;5968;50.362;8.982;2022-08-02T06:17:06;17.90;99.90
11822;DHT22;5968;50.362;8.982;2022-08-02T06:19:36;15.30;99.90
11822;DHT22;5968;50.362;8.982;2022-08-02T06:22:19;17.80;99.90
11822;DHT22;5968;50.362;8.982;2022-08-02T06:25:04;18.10;99.90
11822;DHT22;5968;50.362;8.982;2022-08-02T06:27:53;18.00;99.90
11822;DHT22;5968;50.362;8.982;2022-08-02T06:30:21;18.00;99.90
11822;DHT22;5968;50.362;8.982;2022-08-02T06:32:50;18.10;99.90
11822;DHT22;5968;50.362;8.982;2022-08-02T06:35:18;18.10;99.90
11822;DHT22;5968;50.362;8.982;2022-08-02T06:37:50;18.10;99.90
11822;DHT22;5968;50.362;8.982;2022-08-02T06:40:29;18.30;99.90
11822;DHT22;5968;50.362;8.982;2022-08-02T06:43:09;18.30;99.90
11822;DHT22;5968;50.362;8.982;2022-08-02T06:45:38;18.40;99.90
11822;DHT22;5968;50.362;8.982;2022-08-02T06:48:07;18.50;99.90
11822;DHT22;5968;50.362;8.982;2022-08-02T06:50:36;18.60;99.90
11822;DHT22;5968;50.362;8.982;2022-08-02T06:53:06;18.70;99.90
11822;DHT22;5968;50.362;8.982;2022-08-02T06:55:45;18.80;99.90
11822;DHT22;5968;50.362;8.982;2022-08-02T06:58:13;18.80;99.90
11822;DHT22;5968;50.362;8.982;2022-08-02T07:00:41;18.90;99.90
11822;DHT22;5968;50.362;8.982;2022-08-02T07:03:09;19.00;99.90
11822;DHT22;5968;50.362;8.982;2022-08-02T07:05:37;19.50;99.90
11822;DHT22;5968;50.362;8.982;2022-08-02T07:08:06;19.30;99.90
11822;DHT22;5968;50.362;8.982;2022-08-02T07:10:34;19.40;99.90
11822;DHT22;5968;50.362;8.982;2022-08-02T07:13:04;19.50;99.90
11822;DHT22;5968;50.362;8.982;2022-08-02T07:15:36;19.70;99.90
11822;DHT22;5968;50.362;8.982;2022-08-02T07:18:04;19.80;99.90
11822;DHT22;5968;50.362;8.982;2022-08-02T07:20:33;19.90;99.90
11822;DHT22;5968;50.362;8.982;2022-08-02T07:23:04;20.00;99.90
11822;DHT22;5968;50.362;8.982;2022-08-02T07:28:21;20.10;99.90
11822;DHT22;5968;50.362;8.982;2022-08-02T07:30:51;20.20;99.90
11822;DHT22;5968;50.362;8.982;2022-08-02T07:33:19;20.30;99.90
11822;DHT22;5968;50.362;8.982;2022-08-02T07:36:05;20.40;99.90
11822;DHT22;5968;50.362;8.982;2022-08-02T07:38:35;20.50;99.90
11822;DHT22;5968;50.362;8.982;2022-08-02T07:41:07;20.50;99.90
11822;DHT22;5968;50.362;8.982;2022-08-02T07:43:38;20.50;99.90
11822;DHT22;5968;50.362;8.982;2022-08-02T07:46:11;20.60;99.90
11822;DHT22;5968;50.362;8.982;2022-08-02T07:48:39;20.70;99.90
11822;DHT22;5968;50.362;8.982;2022-08-02T07:51:06;20.80;99.90
11822;DHT22;5968;50.362;8.982;2022-08-02T07:53:40;20.90;99.90
11822;DHT22;5968;50.362;8.982;2022-08-02T07:56:27;21.00;99.90
11822;DHT22;5968;50.362;8.982;2022-08-02T07:58:56;21.00;99.90
11822;DHT22;5968;50.362;8.982;2022-08-02T08:01:25;21.10;99.90
11822;DHT22;5968;50.362;8.982;2022-08-02T08:03:54;21.10;99.90
11822;DHT22;5968;50.362;8.982;2022-08-02T08:06:22;21.20;99.90
11822;DHT22;5968;50.362;8.982;2022-08-02T08:08:55;21.20;99.90
11822;DHT22;5968;50.362;8.982;2022-08-02T08:11:25;21.30;99.90
11822;DHT22;5968;50.362;8.982;2022-08-02T08:13:53;21.40;99.90
11822;DHT22;5968;50.362;8.982;2022-08-02T08:16:22;21.50;99.90
11822;DHT22;5968;50.362;8.982;2022-08-02T08:18:51;21.50;99.90
11822;DHT22;5968;50.362;8.982;2022-08-02T08:21:20;21.60;99.90
11822;DHT22;5968;50.362;8.982;2022-08-02T08:23:47;21.70;99.90
11822;DHT22;5968;50.362;8.982;2022-08-02T08:26:15;21.70;99.90
11822;DHT22;5968;50.362;8.982;2022-08-02T08:28:43;21.80;99.90
11822;DHT22;5968;50.362;8.982;2022-08-02T08:31:11;21.80;99.90
11822;DHT22;5968;50.362;8.982;2022-08-02T08:33:40;21.70;99.90
11822;DHT22;5968;50.362;8.982;2022-08-02T08:36:08;22.00;99.90
11822;DHT22;5968;50.362;8.982;2022-08-02T08:38:36;22.30;99.90
11822;DHT22;5968;50.362;8.982;2022-08-02T08:41:04;22.10;99.90
11822;DHT22;5968;50.362;8.982;2022-08-02T08:43:34;22.20;99.90
11822;DHT22;5968;50.362;8.982;2022-08-02T08:46:01;22.30;99.90
11822;DHT22;5968;50.362;8.982;2022-08-02T08:48:32;22.30;99.90
11822;DHT22;5968;50.362;8.982;2022-08-02T08:51:09;22.40;99.90
11822;DHT22;5968;50.362;8.982;2022-08-02T08:53:42;22.50;99.90
11822;DHT22;5968;50.362;8.982;2022-08-02T08:56:11;22.60;99.90
11822;DHT22;5968;50.362;8.982;2022-08-02T08:58:45;22.70;99.90
11822;DHT22;5968;50.362;8.982;2022-08-02T09:01:17;22.70;99.90
11822;DHT22;5968;50.362;8.982;2022-08-02T09:03:45;22.80;99.90
11822;DHT22;5968;50.362;8.982;2022-08-02T09:06:14;22.80;99.90
11822;DHT22;5968;50.362;8.982;2022-08-02T09:08:42;22.90;99.90
11822;DHT22;5968;50.362;8.982;2022-08-02T09:11:14;23.00;99.90
11822;DHT22;5968;50.362;8.982;2022-08-02T09:13:53;23.10;99.90
11822;DHT22;5968;50.362;8.982;2022-08-02T09:16:30;23.10;99.90
11822;DHT22;5968;50.362;8.982;2022-08-02T09:19:00;23.10;99.90
11822;DHT22;5968;50.362;8.982;2022-08-02T09:21:36;23.20;99.90
11822;DHT22;5968;50.362;8.982;2022-08-02T09:24:14;23.30;99.90
11822;DHT22;5968;50.362;8.982;2022-08-02T09:26:44;23.40;99.90
11822;DHT22;5968;50.362;8.982;2022-08-02T09:29:13;23.40;99.90
11822;DHT22;5968;50.362;8.982;2022-08-02T09:31:44;23.40;99.90
11822;DHT22;5968;50.362;8.982;2022-08-02T09:34:15;23.40;99.90
11822;DHT22;5968;50.362;8.982;2022-08-02T09:36:47;23.50;99.90
11822;DHT22;5968;50.362;8.982;2022-08-02T09:39:20;23.50;99.90
11822;DHT22;5968;50.362;8.982;2022-08-02T09:41:49;23.60;99.90
11822;DHT22;5968;50.362;8.982;2022-08-02T09:44:17;23.70;99.90
11822;DHT22;5968;50.362;8.982;2022-08-02T09:46:45;23.80;99.90
11822;DHT22;5968;50.362;8.982;2022-08-02T09:49:17;23.90;99.90
11822;DHT22;5968;50.362;8.982;2022-08-02T09:51:50;24.00;99.90
11822;DHT22;5968;50.362;8.982;2022-08-02T09:54:19;24.10;98.20
11822;DHT22;5968;50.362;8.982;2022-08-02T09:56:49;24.20;96.40
11822;DHT22;5968;50.362;8.982;2022-08-02T09:59:19;24.30;97.60
11822;DHT22;5968;50.362;8.982;2022-08-02T10:01:49;24.50;98.60
11822;DHT22;5968;50.362;8.982;2022-08-02T10:04:37;24.60;96.10
11822;DHT22;5968;50.362;8.982;2022-08-02T10:07:21;24.80;90.00
11822;DHT22;5968;50.362;8.982;2022-08-02T10:09:49;24.90;89.70
11822;DHT22;5968;50.362;8.982;2022-08-02T10:12:18;25.00;88.10
11822;DHT22;5968;50.362;8.982;2022-08-02T10:14:48;25.10;83.90
11822;DHT22;5968;50.362;8.982;2022-08-02T10:17:17;25.20;82.10
11822;DHT22;5968;50.362;8.982;2022-08-02T10:19:45;25.20;84.60
11822;DHT22;5968;50.362;8.982;2022-08-02T10:22:33;25.20;80.80
11822;DHT22;5968;50.362;8.982;2022-08-02T10:25:03;25.10;80.70
11822;DHT22;5968;50.362;8.982;2022-08-02T10:27:31;25.10;87.80
11822;DHT22;5968;50.362;8.982;2022-08-02T10:30:26;25.20;85.70
11822;DHT22;5968;50.362;8.982;2022-08-02T10:32:58;25.20;86.70
11822;DHT22;5968;50.362;8.982;2022-08-02T10:35:28;25.30;84.00
11822;DHT22;5968;50.362;8.982;2022-08-02T10:38:03;25.30;86.60
11822;DHT22;5968;50.362;8.982;2022-08-02T10:40:46;25.50;85.80
11822;DHT22;5968;50.362;8.982;2022-08-02T10:43:39;25.30;84.60
11822;DHT22;5968;50.362;8.982;2022-08-02T10:46:21;25.60;84.80
11822;DHT22;5968;50.362;8.982;2022-08-02T10:49:05;25.60;86.40
11822;DHT22;5968;50.362;8.982;2022-08-02T10:52:03;25.70;87.30
11822;DHT22;5968;50.362;8.982;2022-08-02T10:54:35;25.70;85.50
11822;DHT22;5968;50.362;8.982;2022-08-02T10:57:14;25.80;84.50
11822;DHT22;5968;50.362;8.982;2022-08-02T10:59:42;25.90;83.70
11822;DHT22;5968;50.362;8.982;2022-08-02T11:02:11;25.90;86.50
11822;DHT22;5968;50.362;8.982;2022-08-02T11:05:04;26.10;81.90
11822;DHT22;5968;50.362;8.982;2022-08-02T11:07:35;25.90;83.60
11822;DHT22;5968;50.362;8.982;2022-08-02T11:10:27;26.00;82.50
11822;DHT22;5968;50.362;8.982;2022-08-02T11:13:05;25.90;82.20
11822;DHT22;5968;50.362;8.982;2022-08-02T11:15:49;26.00;82.70
11822;DHT22;5968;50.362;8.982;2022-08-02T11:18:18;26.00;81.50
11822;DHT22;5968;50.362;8.982;2022-08-02T11:20:46;26.10;84.40
11822;DHT22;5968;50.362;8.982;2022-08-02T11:23:33;26.20;86.90
11822;DHT22;5968;50.362;8.982;2022-08-02T11:29:14;26.80;81.30
11822;DHT22;5968;50.362;8.982;2022-08-02T11:31:44;26.90;77.60
11822;DHT22;5968;50.362;8.982;2022-08-02T11:34:12;26.90;81.40
11822;DHT22;5968;50.362;8.982;2022-08-02T11:37:00;27.10;81.00
11822;DHT22;5968;50.362;8.982;2022-08-02T11:39:28;27.10;76.80
11822;DHT22;5968;50.362;8.982;2022-08-02T11:41:58;27.10;76.00
11822;DHT22;5968;50.362;8.982;2022-08-02T11:44:29;27.10;73.50
11822;DHT22;5968;50.362;8.982;2022-08-02T11:47:05;27.00;73.20
11822;DHT22;5968;50.362;8.982;2022-08-02T11:49:36;27.00;72.50
11822;DHT22;5968;50.362;8.982;2022-08-02T11:52:05;27.00;72.80
11822;DHT22;5968;50.362;8.982;2022-08-02T11:54:39;26.90;73.40
11822;DHT22;5968;50.362;8.982;2022-08-02T11:57:13;27.10;76.20
11822;DHT22;5968;50.362;8.982;2022-08-02T11:59:49;27.20;71.70
11822;DHT22;5968;50.362;8.982;2022-08-02T12:02:18;27.90;73.70
11822;DHT22;5968;50.362;8.982;2022-08-02T12:04:54;27.40;71.10
11822;DHT22;5968;50.362;8.982;2022-08-02T12:07:31;27.60;67.80
11822;DHT22;5968;50.362;8.982;2022-08-02T12:10:04;27.60;66.40
11822;DHT22;5968;50.362;8.982;2022-08-02T12:12:33;27.80;66.50
11822;DHT22;5968;50.362;8.982;2022-08-02T12:15:08;28.20;64.10
11822;DHT22;5968;50.362;8.982;2022-08-02T12:17:36;27.70;64.10
11822;DHT22;5968;50.362;8.982;2022-08-02T12:20:34;27.70;62.40
11822;DHT22;5968;50.362;8.982;2022-08-02T12:23:02;27.70;61.60
11822;DHT22;5968;50.362;8.982;2022-08-02T12:25:31;27.90;61.70
11822;DHT22;5968;50.362;8.982;2022-08-02T12:28:22;27.90;63.80
11822;DHT22;5968;50.362;8.982;2022-08-02T12:30:57;28.00;62.20
11822;DHT22;5968;50.362;8.982;2022-08-02T12:33:42;28.00;63.50
11822;DHT22;5968;50.362;8.982;2022-08-02T12:36:14;28.20;65.10
11822;DHT22;5968;50.362;8.982;2022-08-02T12:38:49;28.30;60.30
11822;DHT22;5968;50.362;8.982;2022-08-02T12:41:18;28.50;62.90
11822;DHT22;5968;50.362;8.982;2022-08-02T12:44:04;28.80;57.20
11822;DHT22;5968;50.362;8.982;2022-08-02T12:46:33;28.80;53.90
11822;DHT22;5968;50.362;8.982;2022-08-02T12:49:14;28.70;54.60
11822;DHT22;5968;50.362;8.982;2022-08-02T12:51:44;28.70;55.10
11822;DHT22;5968;50.362;8.982;2022-08-02T12:54:26;28.70;55.20
11822;DHT22;5968;50.362;8.982;2022-08-02T12:56:57;28.90;50.40
11822;DHT22;5968;50.362;8.982;2022-08-02T12:59:38;28.80;47.90
11822;DHT22;5968;50.362;8.982;2022-08-02T13:02:10;28.70;50.80
11822;DHT22;5968;50.362;8.982;2022-08-02T13:04:40;28.80;48.60
11822;DHT22;5968;50.362;8.982;2022-08-02T13:07:16;28.90;48.20
11822;DHT22;5968;50.362;8.982;2022-08-02T13:09:44;28.90;46.90
11822;DHT22;5968;50.362;8.982;2022-08-02T13:12:14;29.00;48.10
11822;DHT22;5968;50.362;8.982;2022-08-02T13:14:43;28.90;47.10
11822;DHT22;5968;50.362;8.982;2022-08-02T13:17:16;28.90;43.80
11822;DHT22;5968;50.362;8.982;2022-08-02T13:19:44;29.00;46.70
11822;DHT22;5968;50.362;8.982;2022-08-02T13:22:17;29.10;45.30
11822;DHT22;5968;50.362;8.982;2022-08-02T13:24:45;29.30;42.20
11822;DHT22;5968;50.362;8.982;2022-08-02T13:27:23;29.10;41.90
11822;DHT22;5968;50.362;8.982;2022-08-02T13:29:52;29.10;41.20
11822;DHT22;5968;50.362;8.982;2022-08-02T13:32:22;29.20;42.60
11822;DHT22;5968;50.362;8.982;2022-08-02T13:34:52;29.30;45.00
11822;DHT22;5968;50.362;8.982;2022-08-02T13:37:20;29.50;40.30
11822;DHT22;5968;50.362;8.982;2022-08-02T13:39:48;29.70;39.30
11822;DHT22;5968;50.362;8.982;2022-08-02T13:42:35;29.80;40.00
11822;DHT22;5968;50.362;8.982;2022-08-02T13:45:05;29.90;38.50
11822;DHT22;5968;50.362;8.982;2022-08-02T13:47:42;29.90;40.00
11822;DHT22;5968;50.362;8.982;2022-08-02T13:50:30;30.00;36.20
11822;DHT22;5968;50.362;8.982;2022-08-02T13:52:58;30.10;34.70
11822;DHT22;5968;50.362;8.982;2022-08-02T13:55:26;30.10;35.40
11822;DHT22;5968;50.362;8.982;2022-08-02T13:57:54;30.10;33.10
11822;DHT22;5968;50.362;8.982;2022-08-02T14:00:22;30.20;32.50
11822;DHT22;5968;50.362;8.982;2022-08-02T14:03:04;30.20;32.80
11822;DHT22;5968;50.362;8.982;2022-08-02T14:05:33;30.30;35.60
11822;DHT22;5968;50.362;8.982;2022-08-02T14:08:10;30.40;31.50
11822;DHT22;5968;50.362;8.982;2022-08-02T14:10:46;30.30;30.40
11822;DHT22;5968;50.362;8.982;2022-08-02T14:13:14;30.60;29.70
11822;DHT22;5968;50.362;8.982;2022-08-02T14:15:42;30.80;29.60
11822;DHT22;5968;50.362;8.982;2022-08-02T14:18:12;30.30;28.70
11822;DHT22;5968;50.362;8.982;2022-08-02T14:20:42;30.30;29.10
11822;DHT22;5968;50.362;8.982;2022-08-02T14:23:10;30.40;29.40
11822;DHT22;5968;50.362;8.982;2022-08-02T14:25:38;30.50;30.30
11822;DHT22;5968;50.362;8.982;2022-08-02T14:28:06;30.50;29.00
11822;DHT22;5968;50.362;8.982;2022-08-02T14:30:38;30.60;29.10
11822;DHT22;5968;50.362;8.982;2022-08-02T14:33:06;30.50;27.60
11822;DHT22;5968;50.362;8.982;2022-08-02T14:35:35;30.50;28.10
11822;DHT22;5968;50.362;8.982;2022-08-02T14:38:03;30.70;27.10
11822;DHT22;5968;50.362;8.982;2022-08-02T14:40:33;30.80;28.40
11822;DHT22;5968;50.362;8.982;2022-08-02T14:43:02;31.00;27.10
11822;DHT22;5968;50.362;8.982;2022-08-02T14:45:30;31.00;25.50
11822;DHT22;5968;50.362;8.982;2022-08-02T14:48:08;31.10;24.50
11822;DHT22;5968;50.362;8.982;2022-08-02T14:50:37;31.10;24.80
11822;DHT22;5968;50.362;8.982;2022-08-02T14:53:05;31.30;24.80
11822;DHT22;5968;50.362;8.982;2022-08-02T14:55:38;31.30;25.30
11822;DHT22;5968;50.362;8.982;2022-08-02T14:58:14;31.20;21.10
11822;DHT22;5968;50.362;8.982;2022-08-02T15:00:42;31.20;23.20
11822;DHT22;5968;50.362;8.982;2022-08-02T15:03:11;31.30;25.10
11822;DHT22;5968;50.362;8.982;2022-08-02T15:05:40;31.50;22.50
11822;DHT22;5968;50.362;8.982;2022-08-02T15:08:08;31.60;22.10
11822;DHT22;5968;50.362;8.982;2022-08-02T15:10:36;31.70;22.90
11822;DHT22;5968;50.362;8.982;2022-08-02T15:13:04;31.50;20.30
11822;DHT22;5968;50.362;8.982;2022-08-02T15:15:34;31.20;19.90
11822;DHT22;5968;50.362;8.982;2022-08-02T15:18:10;31.10;21.30
11822;DHT22;5968;50.362;8.982;2022-08-02T15:20:38;31.00;20.40
11822;DHT22;5968;50.362;8.982;2022-08-02T15:23:17;31.00;21.90
11822;DHT22;5968;50.362;8.982;2022-08-02T15:25:46;31.10;20.00
11822;DHT22;5968;50.362;8.982;2022-08-02T15:28:13;31.20;21.70
11822;DHT22;5968;50.362;8.982;2022-08-02T15:30:41;31.00;21.30
11822;DHT22;5968;50.362;8.982;2022-08-02T15:33:09;30.90;19.80
11822;DHT22;5968;50.362;8.982;2022-08-02T15:35:38;30.90;19.90
11822;DHT22;5968;50.362;8.982;2022-08-02T15:38:06;30.90;20.20
11822;DHT22;5968;50.362;8.982;2022-08-02T15:40:35;30.90;19.10
11822;DHT22;5968;50.362;8.982;2022-08-02T15:43:03;30.80;19.40
11822;DHT22;5968;50.362;8.982;2022-08-02T15:45:31;30.90;20.90
11822;DHT22;5968;50.362;8.982;2022-08-02T15:47:58;30.80;18.80
11822;DHT22;5968;50.362;8.982;2022-08-02T15:50:31;30.80;19.90
11822;DHT22;5968;50.362;8.982;2022-08-02T15:53:00;30.70;17.70
11822;DHT22;5968;50.362;8.982;2022-08-02T15:55:28;30.60;18.00
11822;DHT22;5968;50.362;8.982;2022-08-02T15:58:17;30.60;20.40
11822;DHT22;5968;50.362;8.982;2022-08-02T16:00:48;30.60;18.50
11822;DHT22;5968;50.362;8.982;2022-08-02T16:03:17;30.70;20.20
11822;DHT22;5968;50.362;8.982;2022-08-02T16:05:47;31.10;18.90
11822;DHT22;5968;50.362;8.982;2022-08-02T16:08:15;31.80;17.00
11822;DHT22;5968;50.362;8.982;2022-08-02T16:10:43;32.70;15.90
11822;DHT22;5968;50.362;8.982;2022-08-02T16:13:11;34.10;12.80
11822;DHT22;5968;50.362;8.982;2022-08-02T16:16:16;34.80;11.70
11822;DHT22;5968;50.362;8.982;2022-08-02T16:18:44;36.20;10.10
11822;DHT22;5968;50.362;8.982;2022-08-02T16:21:11;36.70;5.50
11822;DHT22;5968;50.362;8.982;2022-08-02T16:23:39;36.90;3.60
11822;DHT22;5968;50.362;8.982;2022-08-02T16:26:28;37.30;4.30
11822;DHT22;5968;50.362;8.982;2022-08-02T16:28:56;38.20;1.10
11822;DHT22;5968;50.362;8.982;2022-08-02T16:31:26;38.80;1.00